sensor_id;sensor_type;location;lat;lon;timestamp;pressure;altitude;pressure_sealevel;temperature;humidity
5703;BME280;2876;51.738;10.050;2023-04-19T00:01:19;100344.13;;;11.10;68.84
5703;BME280;2876;51.738;10.050;2023-04-19T00:07:21;100331.00;;;10.84;69.93
5703;BME280;2876;51.738;10.050;2023-04-19T00:13:23;100316.03;;;10.90;69.25
5703;BME280;2876;51.738;10.050;2023-04-19T00:19:25;100319.34;;;10.77;68.65
5703;BME280;2876;51.738;10.050;2023-04-19T00:25:27;100321.75;;;10.64;70.00
5703;BME280;2876;51.738;10.050;2023-04-19T00:31:31;100337.69;;;10.57;71.55
5703;BME280;2876;51.738;10.050;2023-04-19T00:37:33;100332.47;;;10.64;73.23
5703;BME280;2876;51.738;10.050;2023-04-19T00:43:35;100327.25;;;10.62;73.02
5703;BME280;2876;51.738;10.050;2023-04-19T00:49:37;100328.56;;;10.35;73.33
5703;BME280;2876;51.738;10.050;2023-04-19T00:55:39;100321.66;;;10.49;72.88
5703;BME280;2876;51.738;10.050;2023-04-19T01:01:41;100321.69;;;10.33;71.58
5703;BME280;2876;51.738;10.050;2023-04-19T01:07:43;100322.22;;;10.28;72.22
5703;BME280;2876;51.738;10.050;2023-04-19T01:13:45;100319.53;;;10.20;71.84
5703;BME280;2876;51.738;10.050;2023-04-19T01:19:47;100315.59;;;9.91;72.31
5703;BME280;2876;51.738;10.050;2023-04-19T01:25:49;100327.97;;;9.93;72.37
5703;BME280;2876;51.738;10.050;2023-04-19T01:31:51;100321.28;;;9.88;72.69
5703;BME280;2876;51.738;10.050;2023-04-19T01:37:54;100327.47;;;9.81;73.84
5703;BME280;2876;51.738;10.050;2023-04-19T01:43:57;100324.66;;;9.66;73.41
5703;BME280;2876;51.738;10.050;2023-04-19T01:49:59;100321.84;;;9.59;72.46
5703;BME280;2876;51.738;10.050;2023-04-19T01:56:01;100307.63;;;9.51;71.50
5703;BME280;2876;51.738;10.050;2023-04-19T02:02:06;100313.63;;;9.45;69.70
5703;BME280;2876;51.738;10.050;2023-04-19T02:08:09;100311.78;;;9.29;70.06
5703;BME280;2876;51.738;10.050;2023-04-19T02:14:11;100299.19;;;8.80;68.99
5703;BME280;2876;51.738;10.050;2023-04-19T02:20:12;100304.69;;;8.71;68.04
5703;BME280;2876;51.738;10.050;2023-04-19T02:26:14;100307.34;;;8.28;67.36
5703;BME280;2876;51.738;10.050;2023-04-19T02:32:16;100305.31;;;8.22;66.03
5703;BME280;2876;51.738;10.050;2023-04-19T02:38:18;100309.59;;;7.81;65.96
5703;BME280;2876;51.738;10.050;2023-04-19T02:44:20;100301.56;;;7.81;65.69
5703;BME280;2876;51.738;10.050;2023-04-19T02:50:22;100307.13;;;7.61;65.65
5703;BME280;2876;51.738;10.050;2023-04-19T02:56:24;100313.69;;;7.23;65.93
5703;BME280;2876;51.738;10.050;2023-04-19T03:02:26;100309.34;;;7.04;67.24
5703;BME280;2876;51.738;10.050;2023-04-19T03:08:28;100308.09;;;6.99;67.44
5703;BME280;2876;51.738;10.050;2023-04-19T03:14:30;100303.00;;;7.05;67.01
5703;BME280;2876;51.738;10.050;2023-04-19T03:20:34;100303.81;;;6.70;67.91
5703;BME280;2876;51.738;10.050;2023-04-19T03:26:36;100304.50;;;6.54;68.57
5703;BME280;2876;51.738;10.050;2023-04-19T03:32:38;100299.28;;;6.53;69.21
5703;BME280;2876;51.738;10.050;2023-04-19T03:38:40;100293.69;;;6.28;70.19
5703;BME280;2876;51.738;10.050;2023-04-19T03:44:42;100289.63;;;6.24;70.82
5703;BME280;2876;51.738;10.050;2023-04-19T03:50:44;100291.97;;;5.90;71.66
5703;BME280;2876;51.738;10.050;2023-04-19T03:56:46;100287.88;;;5.68;72.91
5703;BME280;2876;51.738;10.050;2023-04-19T04:02:48;100286.50;;;5.54;72.50
5703;BME280;2876;51.738;10.050;2023-04-19T04:08:50;100292.78;;;5.53;72.37
5703;BME280;2876;51.738;10.050;2023-04-19T04:14:52;100292.69;;;5.45;71.66
5703;BME280;2876;51.738;10.050;2023-04-19T04:20:55;100299.25;;;5.51;72.29
5703;BME280;2876;51.738;10.050;2023-04-19T04:26:57;100289.59;;;5.40;72.79
5703;BME280;2876;51.738;10.050;2023-04-19T04:33:01;100290.44;;;5.31;73.66
5703;BME280;2876;51.738;10.050;2023-04-19T04:39:03;100299.97;;;5.33;74.34
5703;BME280;2876;51.738;10.050;2023-04-19T04:45:07;100303.31;;;5.35;74.81
5703;BME280;2876;51.738;10.050;2023-04-19T04:51:11;100306.97;;;5.15;75.71
5703;BME280;2876;51.738;10.050;2023-04-19T04:57:13;100307.25;;;5.41;74.51
5703;BME280;2876;51.738;10.050;2023-04-19T05:03:15;100313.53;;;5.59;74.26
5703;BME280;2876;51.738;10.050;2023-04-19T05:09:17;100316.72;;;5.63;74.90
5703;BME280;2876;51.738;10.050;2023-04-19T05:15:19;100308.38;;;6.05;72.82
5703;BME280;2876;51.738;10.050;2023-04-19T05:21:21;100309.06;;;6.07;73.17
5703;BME280;2876;51.738;10.050;2023-04-19T05:27:23;100305.50;;;6.16;73.33
5703;BME280;2876;51.738;10.050;2023-04-19T05:33:25;100304.00;;;6.41;72.21
5703;BME280;2876;51.738;10.050;2023-04-19T05:39:28;100299.50;;;6.87;68.38
5703;BME280;2876;51.738;10.050;2023-04-19T05:45:30;100310.63;;;7.18;66.69
5703;BME280;2876;51.738;10.050;2023-04-19T05:51:32;100313.88;;;7.48;66.68
5703;BME280;2876;51.738;10.050;2023-04-19T05:57:34;100320.63;;;7.60;68.29
5703;BME280;2876;51.738;10.050;2023-04-19T06:03:36;100320.53;;;7.96;64.50
5703;BME280;2876;51.738;10.050;2023-04-19T06:09:38;100315.16;;;8.22;63.22
5703;BME280;2876;51.738;10.050;2023-04-19T06:15:40;100309.66;;;8.57;62.41
5703;BME280;2876;51.738;10.050;2023-04-19T06:21:42;100313.88;;;8.68;62.47
5703;BME280;2876;51.738;10.050;2023-04-19T06:27:44;100327.97;;;9.03;61.55
5703;BME280;2876;51.738;10.050;2023-04-19T06:33:46;100322.16;;;9.15;60.74
5703;BME280;2876;51.738;10.050;2023-04-19T06:39:48;100316.63;;;9.09;62.26
5703;BME280;2876;51.738;10.050;2023-04-19T06:46:00;100320.66;;;9.70;60.54
5703;BME280;2876;51.738;10.050;2023-04-19T06:52:03;100313.78;;;11.48;57.47
5703;BME280;2876;51.738;10.050;2023-04-19T06:58:04;100315.03;;;14.96;45.64
5703;BME280;2876;51.738;10.050;2023-04-19T07:04:12;100307.81;;;13.86;46.94
5703;BME280;2876;51.738;10.050;2023-04-19T07:10:14;100307.66;;;12.65;50.62
5703;BME280;2876;51.738;10.050;2023-04-19T07:16:16;100293.97;;;11.26;53.90
5703;BME280;2876;51.738;10.050;2023-04-19T07:22:18;100288.44;;;10.81;54.34
5703;BME280;2876;51.738;10.050;2023-04-19T07:28:20;100272.75;;;10.93;48.16
5703;BME280;2876;51.738;10.050;2023-04-19T07:34:22;100284.84;;;11.12;49.52
5703;BME280;2876;51.738;10.050;2023-04-19T07:40:24;100271.97;;;11.30;52.82
5703;BME280;2876;51.738;10.050;2023-04-19T07:46:26;100268.50;;;11.45;52.44
5703;BME280;2876;51.738;10.050;2023-04-19T07:52:28;100265.09;;;11.65;52.71
5703;BME280;2876;51.738;10.050;2023-04-19T07:58:30;100262.16;;;12.34;44.68
5703;BME280;2876;51.738;10.050;2023-04-19T08:04:32;100256.31;;;12.46;41.98
5703;BME280;2876;51.738;10.050;2023-04-19T08:10:34;100260.69;;;12.89;45.76
5703;BME280;2876;51.738;10.050;2023-04-19T08:16:36;100259.44;;;13.07;41.92
5703;BME280;2876;51.738;10.050;2023-04-19T08:22:41;100256.03;;;12.98;42.19
5703;BME280;2876;51.738;10.050;2023-04-19T08:28:43;100259.50;;;12.92;45.56
5703;BME280;2876;51.738;10.050;2023-04-19T08:34:45;100255.88;;;12.85;40.29
5703;BME280;2876;51.738;10.050;2023-04-19T08:40:52;100250.78;;;12.90;41.46
5703;BME280;2876;51.738;10.050;2023-04-19T08:46:58;100251.41;;;13.35;40.78
5703;BME280;2876;51.738;10.050;2023-04-19T08:53:01;100244.63;;;13.39;42.35
5703;BME280;2876;51.738;10.050;2023-04-19T08:59:06;100257.84;;;13.62;41.45
5703;BME280;2876;51.738;10.050;2023-04-19T09:05:20;100239.97;;;13.89;43.24
5703;BME280;2876;51.738;10.050;2023-04-19T09:11:36;100236.81;;;13.79;42.36
5703;BME280;2876;51.738;10.050;2023-04-19T09:17:41;100229.25;;;13.95;40.66
5703;BME280;2876;51.738;10.050;2023-04-19T09:23:46;100223.94;;;14.63;41.05
5703;BME280;2876;51.738;10.050;2023-04-19T09:29:53;100207.16;;;14.88;39.49
5703;BME280;2876;51.738;10.050;2023-04-19T09:35:58;100208.75;;;14.56;40.37
5703;BME280;2876;51.738;10.050;2023-04-19T09:42:00;100207.19;;;14.33;41.53
5703;BME280;2876;51.738;10.050;2023-04-19T09:48:05;100203.00;;;14.85;42.16
5703;BME280;2876;51.738;10.050;2023-04-19T09:54:12;100210.69;;;15.48;39.45
5703;BME280;2876;51.738;10.050;2023-04-19T10:00:15;100184.13;;;15.05;40.64
5703;BME280;2876;51.738;10.050;2023-04-19T10:06:18;100180.25;;;15.99;36.79
5703;BME280;2876;51.738;10.050;2023-04-19T10:12:25;100195.28;;;15.62;37.65
5703;BME280;2876;51.738;10.050;2023-04-19T10:18:30;100173.31;;;16.55;38.55
5703;BME280;2876;51.738;10.050;2023-04-19T10:24:33;100160.34;;;17.20;34.14
5703;BME280;2876;51.738;10.050;2023-04-19T10:30:35;100153.41;;;18.22;33.65
5703;BME280;2876;51.738;10.050;2023-04-19T10:36:37;100156.53;;;18.68;34.03
5703;BME280;2876;51.738;10.050;2023-04-19T10:49:12;100126.94;;;19.13;32.45
5703;BME280;2876;51.738;10.050;2023-04-19T10:55:15;100127.69;;;20.98;29.07
5703;BME280;2876;51.738;10.050;2023-04-19T11:07:45;100112.94;;;20.66;25.36
5703;BME280;2876;51.738;10.050;2023-04-19T11:13:47;100087.66;;;22.03;24.51
5703;BME280;2876;51.738;10.050;2023-04-19T11:20:01;100081.13;;;22.59;22.06
5703;BME280;2876;51.738;10.050;2023-04-19T11:26:04;100077.13;;;22.39;24.05
5703;BME280;2876;51.738;10.050;2023-04-19T11:32:06;100079.34;;;23.12;23.10
5703;BME280;2876;51.738;10.050;2023-04-19T11:38:12;100080.63;;;21.86;23.30
5703;BME280;2876;51.738;10.050;2023-04-19T11:44:18;100067.25;;;23.02;24.73
5703;BME280;2876;51.738;10.050;2023-04-19T11:56:33;100056.91;;;23.10;25.33
5703;BME280;2876;51.738;10.050;2023-04-19T12:02:43;100027.94;;;23.19;26.35
5703;BME280;2876;51.738;10.050;2023-04-19T12:08:49;100032.00;;;23.11;25.08
5703;BME280;2876;51.738;10.050;2023-04-19T12:14:51;100018.69;;;20.87;26.39
5703;BME280;2876;51.738;10.050;2023-04-19T12:20:53;100002.25;;;23.25;24.68
5703;BME280;2876;51.738;10.050;2023-04-19T12:26:56;100004.94;;;21.37;24.67
5703;BME280;2876;51.738;10.050;2023-04-19T12:33:00;99987.28;;;19.60;25.56
5703;BME280;2876;51.738;10.050;2023-04-19T12:39:02;99981.38;;;22.07;23.65
5703;BME280;2876;51.738;10.050;2023-04-19T12:45:05;99974.41;;;22.48;21.93
5703;BME280;2876;51.738;10.050;2023-04-19T12:51:08;99987.78;;;22.13;23.97
5703;BME280;2876;51.738;10.050;2023-04-19T12:57:10;99991.59;;;24.27;23.21
5703;BME280;2876;51.738;10.050;2023-04-19T13:03:12;99972.06;;;22.67;23.46
5703;BME280;2876;51.738;10.050;2023-04-19T13:09:14;99962.06;;;23.36;24.67
5703;BME280;2876;51.738;10.050;2023-04-19T13:15:16;99970.25;;;22.83;22.42
5703;BME280;2876;51.738;10.050;2023-04-19T13:21:18;99970.22;;;22.41;22.92
5703;BME280;2876;51.738;10.050;2023-04-19T13:27:20;99948.91;;;21.57;23.04
5703;BME280;2876;51.738;10.050;2023-04-19T13:33:22;99934.69;;;22.83;21.98
5703;BME280;2876;51.738;10.050;2023-04-19T13:39:25;99927.16;;;22.58;21.70
5703;BME280;2876;51.738;10.050;2023-04-19T13:45:26;99921.56;;;21.78;23.94
5703;BME280;2876;51.738;10.050;2023-04-19T13:51:28;99921.06;;;19.54;27.35
5703;BME280;2876;51.738;10.050;2023-04-19T13:57:50;99912.69;;;21.93;24.10
5703;BME280;2876;51.738;10.050;2023-04-19T14:03:52;99900.00;;;23.67;23.33
5703;BME280;2876;51.738;10.050;2023-04-19T14:09:54;99904.00;;;22.34;24.17
5703;BME280;2876;51.738;10.050;2023-04-19T14:15:56;99895.31;;;21.23;24.83
5703;BME280;2876;51.738;10.050;2023-04-19T14:21:58;99891.09;;;20.50;27.04
5703;BME280;2876;51.738;10.050;2023-04-19T14:28:01;99885.69;;;17.49;28.98
5703;BME280;2876;51.738;10.050;2023-04-19T14:34:03;99869.91;;;16.80;30.97
5703;BME280;2876;51.738;10.050;2023-04-19T14:40:05;99880.84;;;17.82;31.34
5703;BME280;2876;51.738;10.050;2023-04-19T14:46:08;99867.66;;;16.58;30.51
5703;BME280;2876;51.738;10.050;2023-04-19T14:52:10;99862.28;;;16.70;32.17
5703;BME280;2876;51.738;10.050;2023-04-19T14:58:12;99865.72;;;17.74;30.63
5703;BME280;2876;51.738;10.050;2023-04-19T15:04:13;99857.66;;;20.21;27.14
5703;BME280;2876;51.738;10.050;2023-04-19T15:10:16;99863.75;;;18.28;30.37
5703;BME280;2876;51.738;10.050;2023-04-19T15:16:18;99863.63;;;18.58;29.89
5703;BME280;2876;51.738;10.050;2023-04-19T15:22:20;99868.66;;;19.47;27.16
5703;BME280;2876;51.738;10.050;2023-04-19T15:28:23;99860.88;;;16.31;32.61
5703;BME280;2876;51.738;10.050;2023-04-19T15:34:25;99863.25;;;14.94;35.12
5703;BME280;2876;51.738;10.050;2023-04-19T15:40:27;99861.22;;;15.28;35.23
5703;BME280;2876;51.738;10.050;2023-04-19T15:46:30;99859.09;;;19.73;30.16
5703;BME280;2876;51.738;10.050;2023-04-19T15:52:32;99863.53;;;18.18;29.75
5703;BME280;2876;51.738;10.050;2023-04-19T15:58:35;99862.88;;;20.22;27.89
5703;BME280;2876;51.738;10.050;2023-04-19T16:04:37;99865.25;;;20.36;27.14
5703;BME280;2876;51.738;10.050;2023-04-19T16:10:39;99852.44;;;17.12;31.35
5703;BME280;2876;51.738;10.050;2023-04-19T16:16:41;99857.13;;;15.12;34.48
5703;BME280;2876;51.738;10.050;2023-04-19T16:22:43;99846.44;;;14.07;35.73
5703;BME280;2876;51.738;10.050;2023-04-19T16:28:46;99843.38;;;13.90;36.66
5703;BME280;2876;51.738;10.050;2023-04-19T16:34:48;99843.34;;;15.58;33.62
5703;BME280;2876;51.738;10.050;2023-04-19T16:40:50;99833.75;;;14.92;35.72
5703;BME280;2876;51.738;10.050;2023-04-19T16:46:52;99832.44;;;14.63;36.69
5703;BME280;2876;51.738;10.050;2023-04-19T16:52:54;99826.06;;;14.44;37.28
5703;BME280;2876;51.738;10.050;2023-04-19T16:58:56;99819.78;;;15.02;35.98
5703;BME280;2876;51.738;10.050;2023-04-19T17:04:57;99821.50;;;17.43;32.43
5703;BME280;2876;51.738;10.050;2023-04-19T17:11:00;99817.09;;;19.69;29.93
5703;BME280;2876;51.738;10.050;2023-04-19T17:17:02;99810.16;;;18.87;29.64
5703;BME280;2876;51.738;10.050;2023-04-19T17:23:03;99817.56;;;19.20;29.17
5703;BME280;2876;51.738;10.050;2023-04-19T17:29:05;99806.69;;;19.66;29.29
5703;BME280;2876;51.738;10.050;2023-04-19T17:35:08;99811.09;;;19.21;29.08
5703;BME280;2876;51.738;10.050;2023-04-19T17:41:10;99821.91;;;17.59;29.08
5703;BME280;2876;51.738;10.050;2023-04-19T17:47:18;99818.03;;;16.21;30.40
5703;BME280;2876;51.738;10.050;2023-04-19T17:53:21;99813.47;;;14.05;32.46
5703;BME280;2876;51.738;10.050;2023-04-19T17:59:23;99800.34;;;13.16;34.26
5703;BME280;2876;51.738;10.050;2023-04-19T18:05:25;99798.06;;;13.06;34.58
5703;BME280;2876;51.738;10.050;2023-04-19T18:11:27;99793.66;;;12.31;35.27
5703;BME280;2876;51.738;10.050;2023-04-19T18:17:29;99797.44;;;11.80;36.12
5703;BME280;2876;51.738;10.050;2023-04-19T18:23:31;99804.63;;;11.45;38.06
5703;BME280;2876;51.738;10.050;2023-04-19T18:29:33;99805.94;;;11.56;38.68
5703;BME280;2876;51.738;10.050;2023-04-19T18:35:35;99830.72;;;11.30;39.40
5703;BME280;2876;51.738;10.050;2023-04-19T18:41:37;99825.75;;;10.39;43.22
5703;BME280;2876;51.738;10.050;2023-04-19T18:47:39;99812.25;;;10.33;42.67
5703;BME280;2876;51.738;10.050;2023-04-19T18:53:41;99814.94;;;10.33;43.02
5703;BME280;2876;51.738;10.050;2023-04-19T18:59:46;99804.19;;;10.03;41.74
5703;BME280;2876;51.738;10.050;2023-04-19T19:05:49;99813.63;;;10.14;41.43
5703;BME280;2876;51.738;10.050;2023-04-19T19:11:51;99826.91;;;10.07;41.97
5703;BME280;2876;51.738;10.050;2023-04-19T19:17:57;99807.50;;;9.90;42.94
5703;BME280;2876;51.738;10.050;2023-04-19T19:23:59;99803.25;;;9.96;43.06
5703;BME280;2876;51.738;10.050;2023-04-19T19:30:01;99784.88;;;9.93;42.69
5703;BME280;2876;51.738;10.050;2023-04-19T19:36:04;99787.06;;;9.89;43.33
5703;BME280;2876;51.738;10.050;2023-04-19T19:42:06;99786.78;;;9.84;42.77
5703;BME280;2876;51.738;10.050;2023-04-19T19:48:08;99789.03;;;9.96;44.07
5703;BME280;2876;51.738;10.050;2023-04-19T19:54:11;99790.66;;;9.67;47.22
5703;BME280;2876;51.738;10.050;2023-04-19T20:00:13;99794.25;;;9.59;47.98
5703;BME280;2876;51.738;10.050;2023-04-19T20:06:36;99799.09;;;9.41;49.35
5703;BME280;2876;51.738;10.050;2023-04-19T20:12:58;99792.63;;;9.12;51.33
5703;BME280;2876;51.738;10.050;2023-04-19T20:19:02;99809.75;;;9.03;53.67
5703;BME280;2876;51.738;10.050;2023-04-19T20:25:10;99808.06;;;8.48;63.18
5703;BME280;2876;51.738;10.050;2023-04-19T20:31:13;99800.66;;;8.03;68.40
5703;BME280;2876;51.738;10.050;2023-04-19T20:37:15;99795.22;;;7.72;71.14
5703;BME280;2876;51.738;10.050;2023-04-19T20:43:18;99791.41;;;7.58;73.69
5703;BME280;2876;51.738;10.050;2023-04-19T20:49:20;99813.81;;;7.41;74.76
5703;BME280;2876;51.738;10.050;2023-04-19T20:55:22;99813.44;;;7.11;78.79
5703;BME280;2876;51.738;10.050;2023-04-19T21:01:24;99812.44;;;6.96;81.10
5703;BME280;2876;51.738;10.050;2023-04-19T21:07:26;99786.69;;;6.62;82.42
5703;BME280;2876;51.738;10.050;2023-04-19T21:13:30;99781.38;;;6.70;83.32
5703;BME280;2876;51.738;10.050;2023-04-19T21:19:32;99781.50;;;6.52;84.71
5703;BME280;2876;51.738;10.050;2023-04-19T21:25:34;99775.88;;;6.64;86.96
5703;BME280;2876;51.738;10.050;2023-04-19T21:31:36;99773.03;;;6.57;87.05
5703;BME280;2876;51.738;10.050;2023-04-19T21:37:38;99767.50;;;6.42;86.69
5703;BME280;2876;51.738;10.050;2023-04-19T21:43:40;99767.84;;;6.47;87.08
5703;BME280;2876;51.738;10.050;2023-04-19T21:49:42;99764.44;;;6.29;87.40
5703;BME280;2876;51.738;10.050;2023-04-19T21:55:46;99757.25;;;6.21;88.35
5703;BME280;2876;51.738;10.050;2023-04-19T22:01:47;99747.97;;;6.33;88.18
5703;BME280;2876;51.738;10.050;2023-04-19T22:07:49;99735.66;;;6.32;88.94
5703;BME280;2876;51.738;10.050;2023-04-19T22:13:51;99721.50;;;6.40;89.16
5703;BME280;2876;51.738;10.050;2023-04-19T22:19:54;99725.19;;;6.39;89.22
5703;BME280;2876;51.738;10.050;2023-04-19T22:25:56;99717.25;;;6.64;88.77
5703;BME280;2876;51.738;10.050;2023-04-19T22:31:57;99711.91;;;6.55;88.58
5703;BME280;2876;51.738;10.050;2023-04-19T22:38:00;99696.56;;;6.49;88.61
5703;BME280;2876;51.738;10.050;2023-04-19T22:44:02;99698.75;;;6.70;88.21
5703;BME280;2876;51.738;10.050;2023-04-19T22:50:05;99680.28;;;6.69;88.51
5703;BME280;2876;51.738;10.050;2023-04-19T22:56:07;99682.25;;;6.67;88.00
5703;BME280;2876;51.738;10.050;2023-04-19T23:02:09;99667.78;;;6.69;87.96
5703;BME280;2876;51.738;10.050;2023-04-19T23:08:11;99664.44;;;6.59;87.76
5703;BME280;2876;51.738;10.050;2023-04-19T23:14:13;99660.28;;;6.73;87.67
5703;BME280;2876;51.738;10.050;2023-04-19T23:20:20;99650.13;;;6.68;88.75
5703;BME280;2876;51.738;10.050;2023-04-19T23:26:22;99648.44;;;6.92;88.28
5703;BME280;2876;51.738;10.050;2023-04-19T23:32:24;99643.75;;;7.02;86.78
5703;BME280;2876;51.738;10.050;2023-04-19T23:38:26;99639.13;;;6.71;87.14
5703;BME280;2876;51.738;10.050;2023-04-19T23:44:28;99637.97;;;6.82;87.53
5703;BME280;2876;51.738;10.050;2023-04-19T23:50:31;99630.13;;;6.64;88.64
5703;BME280;2876;51.738;10.050;2023-04-19T23:56:33;99622.66;;;6.59;88.93
